Weather at Minas Airport [CLOSED]

Public forecast

Using degrees Celsius for public forecast. Weather courtesy of forecast.io.

Closest aviation weather report (METAR) to Minas Airport

Closest report is Ignacio Agramonte International Airport, 18.3 nm (33.8 km) WSW. Retrieved 2022/01/26 19:50 UTC (26 minutes ago):

MUCM 261950Z 03007KT 340V130 9999 FEW020 32/13 Q1014

Closest aviation forecast (TAF) to Minas Airport

Closest forecast is Ignacio Agramonte International Airport, 18.3 nm (33.8 km) WSW. Retrieved 2022/01/26 18:07 UTC (2 hours ago):

TAF MUCM 261700Z 2618/2718 09008KT 9000 SCT018 BECMG 2701/2703 VRB03KT